Time,TemperatureF,DewpointF,PressureIn,WindDirection,WindDirectionDegrees,WindSpeedMPH,WindSpeedGustMPH,Humidity,HourlyPrecipIn,Conditions,Clouds,dailyrainin,SoftwareType,DateUTC
2013-02-10 00:06:00,46.0,38.9,29.91,NE,45,0.0,-999.0,76,-99.99,,,0.00,Acu-Link.com,2013-02-10 06:06:00,
2013-02-10 00:22:00,48.4,36.8,29.91,SSE,157,2.2,-999.0,64,-99.99,,,0.00,Acu-Link.com,2013-02-10 06:22:00,
2013-02-10 00:37:00,50.0,36.2,29.91,SSE,157,3.7,-999.0,59,-99.99,,,0.00,Acu-Link.com,2013-02-10 06:37:00,
2013-02-10 00:52:00,50.4,36.2,29.89,SSE,157,4.2,-999.0,58,-99.99,,,0.00,Acu-Link.com,2013-02-10 06:52:00,
2013-02-10 01:07:00,50.9,35.8,29.89,SSE,157,3.7,-999.0,56,-99.99,,,0.00,Acu-Link.com,2013-02-10 07:07:00,
2013-02-10 01:22:00,51.1,35.5,29.89,SSE,157,2.7,-999.0,55,-99.99,,,0.00,Acu-Link.com,2013-02-10 07:22:00,
2013-02-10 01:37:00,51.6,35.5,29.89,SE,135,4.2,-999.0,54,-99.99,,,0.00,Acu-Link.com,2013-02-10 07:37:00,
2013-02-10 01:52:00,52.2,36.1,29.89,South,180,3.2,-999.0,54,-99.99,,,0.00,Acu-Link.com,2013-02-10 07:52:00,
2013-02-10 02:07:00,52.2,35.6,29.89,South,180,3.2,-999.0,53,-99.99,,,0.00,Acu-Link.com,2013-02-10 08:07:00,
2013-02-10 02:22:00,52.2,36.1,29.88,SSE,157,2.7,-999.0,54,-99.99,,,0.00,Acu-Link.com,2013-02-10 08:22:00,
2013-02-10 02:38:00,52.2,35.6,29.88,SSE,157,3.2,-999.0,53,-99.99,,,0.00,Acu-Link.com,2013-02-10 08:38:00,
2013-02-10 02:53:00,52.0,35.4,29.87,SSE,157,4.7,-999.0,53,-99.99,,,0.00,Acu-Link.com,2013-02-10 08:53:00,
2013-02-10 03:19:00,52.2,35.6,29.86,South,180,4.7,-999.0,53,-99.99,,,0.00,Acu-Link.com,2013-02-10 09:19:00,
2013-02-10 03:34:00,52.3,35.7,29.86,SE,135,3.7,-999.0,53,-99.99,,,0.00,Acu-Link.com,2013-02-10 09:34:00,
2013-02-10 03:50:00,52.7,36.1,29.85,SE,135,4.7,-999.0,53,-99.99,,,0.00,Acu-Link.com,2013-02-10 09:50:00,
2013-02-10 04:05:00,52.9,36.2,29.83,ESE,112,7.8,-999.0,53,-99.99,,,0.00,Acu-Link.com,2013-02-10 10:05:00,
2013-02-10 04:20:00,52.9,36.7,29.82,SSE,157,4.7,-999.0,54,-99.99,,,0.00,Acu-Link.com,2013-02-10 10:20:00,
2013-02-10 04:35:00,52.9,37.2,29.81,SE,135,4.2,-999.0,55,-99.99,,,0.00,Acu-Link.com,2013-02-10 10:35:00,
2013-02-10 04:50:00,53.1,37.8,29.82,SSE,157,3.2,-999.0,56,-99.99,,,0.00,Acu-Link.com,2013-02-10 10:50:00,
2013-02-10 05:05:00,53.1,38.3,29.82,SSE,157,4.2,-999.0,57,-99.99,,,0.00,Acu-Link.com,2013-02-10 11:05:00,
2013-02-10 05:20:00,53.2,38.4,29.81,SSE,157,5.3,-999.0,57,-99.99,,,0.00,Acu-Link.com,2013-02-10 11:20:00,
2013-02-10 05:35:00,53.1,39.2,29.81,SE,135,8.3,-999.0,59,-99.99,,,0.00,Acu-Link.com,2013-02-10 11:35:00,
2013-02-10 05:51:00,52.9,39.4,29.82,South,180,6.8,-999.0,60,-99.99,,,0.00,Acu-Link.com,2013-02-10 11:51:00,
2013-02-10 06:06:00,53.2,40.1,29.81,South,180,6.3,-999.0,61,-99.99,,,0.00,Acu-Link.com,2013-02-10 12:06:00,
2013-02-10 06:21:00,53.4,40.3,29.79,SSE,157,7.3,-999.0,61,-99.99,,,0.00,Acu-Link.com,2013-02-10 12:21:00,
2013-02-10 06:36:00,53.4,40.7,29.78,SSE,157,6.8,-999.0,62,-99.99,,,0.00,Acu-Link.com,2013-02-10 12:36:00,
2013-02-10 06:51:00,53.8,41.1,29.77,South,180,3.7,-999.0,62,-99.99,,,0.00,Acu-Link.com,2013-02-10 12:51:00,
2013-02-10 07:06:00,53.8,41.1,29.77,SSE,157,6.3,-999.0,62,-99.99,,,0.00,Acu-Link.com,2013-02-10 13:06:00,
2013-02-10 07:21:00,54.0,41.3,29.76,South,180,4.7,-999.0,62,-99.99,,,0.00,Acu-Link.com,2013-02-10 13:21:00,
2013-02-10 07:36:00,54.3,42.4,29.77,SE,135,6.8,-999.0,64,-99.99,,,0.00,Acu-Link.com,2013-02-10 13:36:00,
2013-02-10 07:51:00,53.8,43.9,29.77,South,180,5.3,-999.0,69,-99.99,,,0.00,Acu-Link.com,2013-02-10 13:51:00,
2013-02-10 08:07:00,53.6,43.3,29.76,ENE,67,6.8,-999.0,68,-99.99,,,0.00,Acu-Link.com,2013-02-10 14:07:00,
2013-02-10 08:22:00,53.6,42.9,29.76,SE,135,4.7,-999.0,67,-99.99,,,0.00,Acu-Link.com,2013-02-10 14:22:00,
2013-02-10 08:37:00,53.6,43.7,29.76,SSE,157,7.3,-999.0,69,-99.99,,,0.00,Acu-Link.com,2013-02-10 14:37:00,
2013-02-10 08:52:00,53.1,44.7,29.76,ESE,112,2.7,-999.0,73,-99.99,,,0.00,Acu-Link.com,2013-02-10 14:52:00,
2013-02-10 09:07:00,52.5,44.5,29.76,ESE,112,4.7,-999.0,74,-99.99,,,0.01,Acu-Link.com,2013-02-10 15:07:00,
2013-02-10 09:22:00,51.8,45.2,29.76,ESE,112,6.3,-999.0,78,-99.99,,,0.01,Acu-Link.com,2013-02-10 15:22:00,
2013-02-10 09:37:00,50.7,45.4,29.75,SSE,157,5.8,-999.0,82,-99.99,,,0.03,Acu-Link.com,2013-02-10 15:37:00,
2013-02-10 09:52:00,50.7,45.7,29.75,SSE,157,3.2,-999.0,83,-99.99,,,0.05,Acu-Link.com,2013-02-10 15:52:00,
2013-02-10 10:07:00,50.9,45.6,29.75,ESE,112,3.2,-999.0,82,-99.99,,,0.05,Acu-Link.com,2013-02-10 16:07:00,
2013-02-10 10:23:00,50.5,46.2,29.76,SE,135,2.2,-999.0,85,-99.99,,,0.07,Acu-Link.com,2013-02-10 16:23:00,
2013-02-10 10:38:00,50.5,46.8,29.77,SSE,157,2.2,-999.0,87,-99.99,,,0.13,Acu-Link.com,2013-02-10 16:38:00,
2013-02-10 10:53:00,50.5,47.1,29.77,South,180,2.7,-999.0,88,-99.99,,,0.19,Acu-Link.com,2013-02-10 16:53:00,
2013-02-10 11:08:00,50.4,47.3,29.81,NW,315,1.7,-999.0,89,-99.99,,,0.32,Acu-Link.com,2013-02-10 17:08:00,
2013-02-10 11:23:00,50.4,47.6,29.79,SE,135,2.2,-999.0,90,-99.99,,,0.47,Acu-Link.com,2013-02-10 17:23:00,
2013-02-10 11:39:00,50.2,46.5,29.80,ESE,112,2.7,-999.0,87,-99.99,,,0.61,Acu-Link.com,2013-02-10 17:39:00,
2013-02-10 11:54:00,50.4,46.1,29.78,ESE,112,3.2,-999.0,85,-99.99,,,0.75,Acu-Link.com,2013-02-10 17:54:00,
2013-02-10 12:09:00,50.4,46.1,29.74,SE,135,3.7,-999.0,85,-99.99,,,0.89,Acu-Link.com,2013-02-10 18:09:00,
2013-02-10 12:24:00,50.4,46.1,29.68,ESE,112,5.3,-999.0,85,-99.99,,,0.90,Acu-Link.com,2013-02-10 18:24:00,
2013-02-10 12:39:00,50.4,47.6,29.62,South,180,6.8,-999.0,90,-99.99,,,0.91,Acu-Link.com,2013-02-10 18:39:00,
2013-02-10 12:54:00,52.2,49.1,29.62,SE,135,2.7,-999.0,89,-99.99,,,0.91,Acu-Link.com,2013-02-10 18:54:00,
2013-02-10 13:09:00,53.6,49.5,29.61,SSE,157,2.2,-999.0,86,-99.99,,,0.91,Acu-Link.com,2013-02-10 19:09:00,
2013-02-10 13:24:00,54.9,50.5,29.60,SSE,157,5.8,-999.0,85,-99.99,,,0.91,Acu-Link.com,2013-02-10 19:24:00,
2013-02-10 13:39:00,54.9,50.2,29.61,SSE,157,6.3,-999.0,84,-99.99,,,0.91,Acu-Link.com,2013-02-10 19:39:00,
2013-02-10 13:54:00,54.7,50.0,29.62,ESE,112,6.3,-999.0,84,-99.99,,,0.91,Acu-Link.com,2013-02-10 19:54:00,
2013-02-10 14:10:00,55.0,49.9,29.61,South,180,5.3,-999.0,83,-99.99,,,0.91,Acu-Link.com,2013-02-10 20:10:00,
2013-02-10 14:25:00,55.6,50.5,29.61,South,180,4.2,-999.0,83,-99.99,,,0.91,Acu-Link.com,2013-02-10 20:25:00,
2013-02-10 14:40:00,55.9,50.8,29.62,SSE,157,5.3,-999.0,83,-99.99,,,0.91,Acu-Link.com,2013-02-10 20:40:00,
2013-02-10 14:55:00,56.7,51.3,29.63,SSE,157,5.8,-999.0,82,-99.99,,,0.91,Acu-Link.com,2013-02-10 20:55:00,
2013-02-10 15:10:00,57.0,51.6,29.64,SSE,157,2.7,-999.0,82,-99.99,,,0.91,Acu-Link.com,2013-02-10 21:10:00,
2013-02-10 15:25:00,57.9,52.1,29.62,SSE,157,3.7,-999.0,81,-99.99,,,0.91,Acu-Link.com,2013-02-10 21:25:00,
2013-02-10 15:41:00,57.9,52.1,29.62,South,180,3.2,-999.0,81,-99.99,,,0.91,Acu-Link.com,2013-02-10 21:41:00,
2013-02-10 15:56:00,58.1,52.3,29.62,SSE,157,4.7,-999.0,81,-99.99,,,0.91,Acu-Link.com,2013-02-10 21:56:00,
2013-02-10 16:11:00,57.9,52.1,29.63,SE,135,4.2,-999.0,81,-99.99,,,0.91,Acu-Link.com,2013-02-10 22:11:00,
2013-02-10 16:26:00,58.1,52.6,29.61,SSE,157,4.7,-999.0,82,-99.99,,,0.91,Acu-Link.com,2013-02-10 22:26:00,
2013-02-10 16:41:00,58.6,53.5,29.61,South,180,3.2,-999.0,83,-99.99,,,0.91,Acu-Link.com,2013-02-10 22:41:00,
2013-02-10 16:56:00,58.3,53.5,29.62,SSE,157,3.2,-999.0,84,-99.99,,,0.91,Acu-Link.com,2013-02-10 22:56:00,
2013-02-10 17:11:00,57.9,53.4,29.62,SSE,157,6.3,-999.0,85,-99.99,,,0.91,Acu-Link.com,2013-02-10 23:11:00,
2013-02-10 17:26:00,58.1,53.9,29.63,SSE,157,4.2,-999.0,86,-99.99,,,0.91,Acu-Link.com,2013-02-10 23:26:00,
2013-02-10 17:41:00,58.5,54.6,29.63,SSE,157,6.3,-999.0,87,-99.99,,,0.91,Acu-Link.com,2013-02-10 23:41:00,
2013-02-10 17:57:00,59.0,54.5,29.64,ESE,112,4.2,-999.0,85,-99.99,,,0.91,Acu-Link.com,2013-02-10 23:57:00,
2013-02-10 18:12:00,59.2,54.7,29.63,South,180,2.2,-999.0,85,-99.99,,,0.91,Acu-Link.com,2013-02-11 00:12:00,
2013-02-10 18:27:00,59.2,54.7,29.65,SE,135,4.2,-999.0,85,-99.99,,,0.91,Acu-Link.com,2013-02-11 00:27:00,
2013-02-10 18:42:00,59.5,55.0,29.65,SSE,157,5.3,-999.0,85,-99.99,,,0.91,Acu-Link.com,2013-02-11 00:42:00,
2013-02-10 18:57:00,59.7,55.2,29.66,East,90,3.2,-999.0,85,-99.99,,,0.91,Acu-Link.com,2013-02-11 00:57:00,
2013-02-10 19:12:00,60.1,55.6,29.66,SE,135,4.2,-999.0,85,-99.99,,,0.91,Acu-Link.com,2013-02-11 01:12:00,
2013-02-10 19:28:00,60.3,55.8,29.67,SE,135,5.3,-999.0,85,-99.99,,,0.91,Acu-Link.com,2013-02-11 01:28:00,
2013-02-10 19:43:00,60.1,55.6,29.68,SSE,157,4.2,-999.0,85,-99.99,,,0.91,Acu-Link.com,2013-02-11 01:43:00,
2013-02-10 19:58:00,60.1,55.9,29.69,SE,135,3.7,-999.0,86,-99.99,,,0.91,Acu-Link.com,2013-02-11 01:58:00,
2013-02-10 20:13:00,59.9,55.7,29.70,ESE,112,3.2,-999.0,86,-99.99,,,0.91,Acu-Link.com,2013-02-11 02:13:00,
2013-02-10 20:28:00,59.5,55.3,29.70,SE,135,2.7,-999.0,86,-99.99,,,0.91,Acu-Link.com,2013-02-11 02:28:00,
2013-02-10 20:43:00,59.7,55.5,29.71,SE,135,2.2,-999.0,86,-99.99,,,0.91,Acu-Link.com,2013-02-11 02:43:00,
2013-02-10 20:58:00,59.5,55.3,29.71,SE,135,3.7,-999.0,86,-99.99,,,0.91,Acu-Link.com,2013-02-11 02:58:00,
2013-02-10 21:13:00,59.4,55.2,29.72,ESE,112,3.2,-999.0,86,-99.99,,,0.91,Acu-Link.com,2013-02-11 03:13:00,
2013-02-10 21:28:00,59.0,55.1,29.72,SE,135,4.2,-999.0,87,-99.99,,,0.91,Acu-Link.com,2013-02-11 03:28:00,
2013-02-10 21:44:00,58.8,54.9,29.73,ESE,112,2.7,-999.0,87,-99.99,,,0.91,Acu-Link.com,2013-02-11 03:44:00,
2013-02-10 21:59:00,58.6,55.1,29.75,ESE,112,3.7,-999.0,88,-99.99,,,0.91,Acu-Link.com,2013-02-11 03:59:00,
2013-02-10 22:14:00,58.3,54.8,29.75,SE,135,3.7,-999.0,88,-99.99,,,0.91,Acu-Link.com,2013-02-11 04:14:00,
2013-02-10 22:29:00,58.1,54.6,29.75,SSE,157,2.7,-999.0,88,-99.99,,,0.91,Acu-Link.com,2013-02-11 04:29:00,
2013-02-10 22:44:00,57.9,54.1,29.76,SE,135,4.7,-999.0,87,-99.99,,,0.91,Acu-Link.com,2013-02-11 04:44:00,
2013-02-10 22:59:00,57.6,54.1,29.77,SW,225,3.7,-999.0,88,-99.99,,,0.91,Acu-Link.com,2013-02-11 04:59:00,
2013-02-10 23:14:00,57.4,53.6,29.76,SSE,157,3.7,-999.0,87,-99.99,,,0.91,Acu-Link.com,2013-02-11 05:14:00,
2013-02-10 23:30:00,56.8,53.0,29.78,SSE,157,2.7,-999.0,87,-99.99,,,0.91,Acu-Link.com,2013-02-11 05:30:00,
2013-02-10 23:45:00,56.3,52.2,29.79,SSE,157,1.7,-999.0,86,-99.99,,,0.91,Acu-Link.com,2013-02-11 05:45:00,